Time;durP1;ratioP1;P1;durP2;ratioP2;P2;SDS_P1;SDS_P2;PMS_P1;PMS_P2;Temp;Humidity;BMP_temperature;BMP_pressure;BME280_temperature;BME280_humidity;BME280_pressure;Samples;Min_cycle;Max_cycle;Signal;HPM_P1;HPM_P2
2022/01/19 00:00:58;;;;;;;6.47;2.65;;;-6.60;93.00;;;;;;5060068;28;20025;-84
2022/01/19 00:03:24;;;;;;;6.97;2.78;;;-6.50;93.20;;;;;;5074042;28;20032;-83
2022/01/19 00:05:49;;;;;;;3.03;1.98;;;-6.50;93.00;;;;;;5060952;28;20017;-86
2022/01/19 00:08:19;;;;;;;6.28;2.30;;;-6.50;93.00;;;;;;5054931;28;20389;-85
2022/01/19 00:10:49;;;;;;;2.42;2.13;;;-6.50;93.00;;;;;;5055085;28;20036;-85
2022/01/19 00:13:15;;;;;;;2.60;1.98;;;-6.50;92.90;;;;;;5055643;28;20020;-85
2022/01/19 00:15:42;;;;;;;3.83;3.15;;;-6.50;92.90;;;;;;5056752;28;20020;-86
2022/01/19 00:18:08;;;;;;;4.15;2.58;;;-6.50;92.90;;;;;;5055861;28;20203;-84
2022/01/19 00:20:34;;;;;;;7.25;3.17;;;-6.50;92.80;;;;;;5051723;28;20145;-85
2022/01/19 00:23:03;;;;;;;6.33;2.37;;;-6.50;92.60;;;;;;5037180;28;20037;-85
2022/01/19 00:25:30;;;;;;;4.90;2.78;;;-6.50;92.60;;;;;;5018757;28;20259;-86
2022/01/19 00:27:56;;;;;;;12.98;5.05;;;-6.50;92.80;;;;;;5038740;28;20028;-86
2022/01/19 00:30:22;;;;;;;6.95;2.90;;;-6.50;92.70;;;;;;5036113;28;20037;-85
2022/01/19 00:32:47;;;;;;;3.38;2.40;;;-6.50;92.60;;;;;;5027569;28;20048;-86
2022/01/19 00:35:15;;;;;;;4.55;3.22;;;-6.50;92.60;;;;;;5017937;28;20026;-87
2022/01/19 00:37:42;;;;;;;5.78;2.80;;;-6.50;92.70;;;;;;5019569;28;20049;-86
2022/01/19 00:40:10;;;;;;;4.00;3.08;;;-6.50;92.70;;;;;;5022309;28;20036;-86
2022/01/19 00:42:36;;;;;;;5.97;2.78;;;-6.50;92.60;;;;;;4999390;28;20035;-87
2022/01/19 00:45:06;;;;;;;4.03;3.08;;;-6.50;93.00;;;;;;4999766;28;20045;-84
2022/01/19 00:47:33;;;;;;;5.80;2.17;;;-6.50;92.70;;;;;;4996162;28;20158;-82
2022/01/19 00:49:59;;;;;;;;;;;-6.50;92.70;;;;;;4992458;28;20519;-83
2022/01/19 00:52:26;;;;;;;1.67;1.42;;;-6.50;92.70;;;;;;4992479;28;19949;-82
2022/01/19 00:54:52;;;;;;;4.95;2.55;;;-6.50;92.40;;;;;;4979038;28;20031;-83
2022/01/19 00:57:17;;;;;;;8.38;2.80;;;-6.60;92.50;;;;;;4995136;28;20034;-83
2022/01/19 00:59:43;;;;;;;6.88;3.35;;;-6.60;92.50;;;;;;4979173;28;20035;-82
2022/01/19 01:02:09;;;;;;;5.97;2.75;;;-6.60;92.70;;;;;;4996680;28;20026;-82
2022/01/19 01:04:35;;;;;;;3.42;2.40;;;-6.50;92.70;;;;;;5005795;28;20041;-82
2022/01/19 01:07:02;;;;;;;4.55;2.08;;;-6.60;92.70;;;;;;5002424;28;20165;-81
2022/01/19 01:09:28;;;;;;;3.97;2.20;;;-6.50;92.90;;;;;;5008219;28;20044;-84
2022/01/19 01:18:17;;;;;;;3.58;2.58;;;-6.50;92.80;;;;;;4996160;28;20488;-82
2022/01/19 01:19:58;;;;;;;;;;;-6.50;92.70;;;;;;5015489;28;20036;-84
2022/01/19 01:22:25;;;;;;;3.17;2.22;;;-6.50;92.60;;;;;;5056047;28;19999;-83
2022/01/19 01:24:52;;;;;;;3.10;2.35;;;-6.60;92.50;;;;;;5056795;28;20031;-83
2022/01/19 01:27:18;;;;;;;4.68;2.05;;;-6.60;92.60;;;;;;5039090;28;20033;-84
2022/01/19 01:29:44;;;;;;;5.53;2.95;;;-6.60;92.60;;;;;;5056557;28;20031;-84
2022/01/19 01:32:10;;;;;;;4.88;2.30;;;-6.70;92.60;;;;;;5056449;28;20036;-85
2022/01/19 01:34:36;;;;;;;5.70;2.80;;;-6.70;92.80;;;;;;5056342;28;20021;-85
2022/01/19 01:37:02;;;;;;;3.80;2.65;;;-6.70;92.70;;;;;;5038261;28;20029;-84
2022/01/19 01:39:28;;;;;;;6.10;2.90;;;-6.60;92.70;;;;;;5056359;28;20017;-84
2022/01/19 01:41:54;;;;;;;8.68;2.83;;;-6.60;92.50;;;;;;5058948;28;20032;-85
2022/01/19 01:44:20;;;;;;;3.35;2.28;;;-6.60;92.40;;;;;;5070847;28;20053;-81
2022/01/19 01:46:54;;;;;;;7.57;2.33;;;-6.70;92.30;;;;;;5078418;28;20036;-84
2022/01/19 01:49:27;;;;;;;6.05;3.05;;;-6.70;92.50;;;;;;5063324;28;20037;-83
2022/01/19 01:54:41;;;;;;;5.97;2.95;;;-6.70;92.80;;;;;;5056929;28;20032;-83
2022/01/19 01:57:08;;;;;;;3.38;2.65;;;-6.80;92.60;;;;;;5055936;28;20029;-84
2022/01/19 01:59:34;;;;;;;6.88;2.85;;;-6.70;92.70;;;;;;5054086;28;20021;-84
2022/01/19 02:02:00;;;;;;;9.43;2.70;;;-6.80;92.80;;;;;;5055293;28;20052;-84
2022/01/19 02:04:26;;;;;;;3.38;2.58;;;-6.70;93.00;;;;;;5037316;28;20021;-84
2022/01/19 02:07:24;;;;;;;11.13;4.03;;;-6.70;93.00;;;;;;5053993;28;20106;-85
2022/01/19 02:09:49;;;;;;;3.33;2.75;;;-6.70;93.00;;;;;;5055273;28;20047;-85
2022/01/19 02:23:39;;;;;;;5.40;2.88;;;-6.60;93.00;;;;;;5035460;28;20059;-85
2022/01/19 02:26:12;;;;;;;4.90;2.65;;;-6.60;92.80;;;;;;5035723;28;20030;-85
2022/01/19 02:31:49;;;;;;;4.15;3.13;;;-6.60;93.00;;;;;;5034828;28;20572;-84
2022/01/19 02:40:14;;;;;;;6.50;3.47;;;-6.60;93.10;;;;;;5035415;28;20044;-85
2022/01/19 02:51:02;;;;;;;3.85;3.08;;;-6.40;93.60;;;;;;5054216;28;20032;-86
2022/01/19 02:53:28;;;;;;;4.70;3.70;;;-6.40;93.60;;;;;;5047237;28;20492;-87
2022/01/19 02:55:54;;;;;;;5.78;2.92;;;-6.40;93.70;;;;;;5035599;28;20029;-86
2022/01/19 02:58:22;;;;;;;3.55;2.95;;;-6.30;93.50;;;;;;5036936;28;20026;-87
2022/01/19 03:09:02;;;;;;;5.10;3.33;;;-6.30;93.20;;;;;;5036794;28;20056;-88
2022/01/19 03:11:28;;;;;;;8.23;3.25;;;-6.30;93.20;;;;;;5038837;28;20033;-88
2022/01/19 03:13:54;;;;;;;3.88;3.05;;;-6.40;93.10;;;;;;5040251;28;20036;-86
2022/01/19 03:16:21;;;;;;;4.28;3.60;;;-6.40;93.10;;;;;;5036438;28;20410;-87
2022/01/19 03:18:48;;;;;;;5.38;2.47;;;-6.40;93.10;;;;;;5045703;28;20026;-87
2022/01/19 03:21:15;;;;;;;6.60;3.03;;;-6.40;93.10;;;;;;5043192;28;20076;-86
2022/01/19 03:23:40;;;;;;;5.70;3.65;;;-6.40;93.10;;;;;;5035091;28;20091;-86
2022/01/19 03:26:07;;;;;;;9.13;4.30;;;-6.40;92.90;;;;;;5035092;28;20021;-85
2022/01/19 03:28:36;;;;;;;5.45;3.30;;;-6.50;93.00;;;;;;5029577;28;20462;-88
2022/01/19 03:31:05;;;;;;;5.10;2.88;;;-6.40;93.20;;;;;;4997290;28;20033;-86
2022/01/19 03:33:31;;;;;;;5.65;3.90;;;-6.40;93.10;;;;;;5015338;28;20109;-88
2022/01/19 03:35:57;;;;;;;5.25;2.85;;;-6.40;92.90;;;;;;5009756;28;20026;-86
2022/01/19 03:38:22;;;;;;;4.18;2.42;;;-6.40;92.80;;;;;;5016939;28;20037;-86
2022/01/19 03:40:50;;;;;;;8.93;3.65;;;-6.50;92.90;;;;;;5026233;28;20028;-88
2022/01/19 03:43:16;;;;;;;7.85;3.55;;;-6.40;93.00;;;;;;5045206;28;20037;-85
2022/01/19 03:45:50;;;;;;;2.65;2.25;;;-6.40;92.90;;;;;;5045985;28;20029;-87
2022/01/19 03:50:45;;;;;;;7.38;3.67;;;-6.50;92.90;;;;;;5038276;28;20033;-83
2022/01/19 03:53:11;;;;;;;4.85;3.25;;;-6.50;92.90;;;;;;5048963;28;20077;-82
2022/01/19 03:55:37;;;;;;;4.60;3.08;;;-6.50;93.00;;;;;;5047905;28;20044;-82
2022/01/19 03:58:03;;;;;;;7.57;3.45;;;-6.50;93.10;;;;;;5038674;28;20021;-82
2022/01/19 04:00:31;;;;;;;5.35;3.20;;;-6.50;93.10;;;;;;5035208;28;20034;-82
2022/01/19 04:02:58;;;;;;;4.68;2.28;;;-6.50;93.10;;;;;;5034167;28;20022;-86
2022/01/19 04:05:37;;;;;;;3.13;2.08;;;-6.50;93.10;;;;;;5015725;28;20025;-83
2022/01/19 04:08:04;;;;;;;6.63;3.30;;;-6.50;93.00;;;;;;5032850;28;20025;-84
2022/01/19 04:10:30;;;;;;;5.82;2.70;;;-6.60;93.00;;;;;;5015470;28;20038;-83
2022/01/19 04:13:08;;;;;;;4.45;3.30;;;-6.60;93.00;;;;;;5015805;28;20040;-82
2022/01/19 04:15:36;;;;;;;5.18;2.80;;;-6.60;93.00;;;;;;5033747;28;20083;-86
2022/01/19 04:18:03;;;;;;;5.05;2.92;;;-6.60;93.20;;;;;;5036492;28;20022;-92
2022/01/19 04:20:29;;;;;;;5.13;3.13;;;-6.60;93.30;;;;;;5002124;28;20510;-91
2022/01/19 04:22:56;;;;;;;6.85;3.72;;;-6.60;93.20;;;;;;4987412;28;20125;-91
2022/01/19 04:25:23;;;;;;;5.00;3.03;;;-6.60;93.20;;;;;;5015576;28;20530;-91
2022/01/19 04:27:48;;;;;;;9.88;3.45;;;-6.70;93.30;;;;;;4983472;28;20084;-85
2022/01/19 04:30:15;;;;;;;7.35;3.10;;;-6.60;93.30;;;;;;4996188;28;20094;-86
2022/01/19 04:35:19;;;;;;;4.65;2.35;;;-6.70;93.40;;;;;;4997134;28;20034;-86
2022/01/19 04:46:41;;;;;;;4.13;2.78;;;-6.70;93.80;;;;;;4960314;28;20051;-88
2022/01/19 04:49:12;;;;;;;4.70;2.47;;;-6.70;93.80;;;;;;4974659;28;20077;-88
2022/01/19 05:05:14;;;;;;;2.13;1.77;;;-6.70;93.90;;;;;;5006414;28;20395;-85
2022/01/19 05:15:36;;;;;;;5.50;2.80;;;-6.70;94.10;;;;;;5044939;28;20039;-88
2022/01/19 05:18:03;;;;;;;7.00;2.90;;;-6.70;94.10;;;;;;5053380;28;20040;-88
2022/01/19 05:20:29;;;;;;;7.53;3.10;;;-6.60;94.20;;;;;;5056458;28;20074;-85
2022/01/19 05:22:56;;;;;;;3.92;2.60;;;-6.60;94.30;;;;;;5061345;28;20064;-89
2022/01/19 05:25:21;;;;;;;1.85;1.25;;;-6.60;94.30;;;;;;5049692;28;20053;-87
2022/01/19 05:27:48;;;;;;;4.25;3.42;;;-6.60;94.20;;;;;;5070333;28;20033;-87
2022/01/19 05:30:17;;;;;;;4.20;3.22;;;-6.50;94.20;;;;;;5057008;28;20055;-91
2022/01/19 05:32:47;;;;;;;3.83;2.90;;;-6.60;94.00;;;;;;5025346;28;20037;-89
2022/01/19 05:35:14;;;;;;;4.70;2.15;;;-6.60;94.00;;;;;;5017523;28;20037;-89
2022/01/19 05:37:40;;;;;;;4.40;3.33;;;-6.60;94.00;;;;;;5032509;28;20026;-88
2022/01/19 05:40:14;;;;;;;6.73;4.73;;;-6.70;94.00;;;;;;5011749;28;20026;-87
2022/01/19 05:42:40;;;;;;;4.53;3.03;;;-6.70;94.00;;;;;;5034204;28;20044;-87
2022/01/19 05:45:08;;;;;;;5.85;3.13;;;-6.80;93.90;;;;;;5036137;28;20414;-88
2022/01/19 05:47:34;;;;;;;7.00;2.28;;;-6.80;94.00;;;;;;5035423;28;20026;-86
2022/01/19 05:49:59;;;;;;;7.40;3.45;;;-6.80;94.00;;;;;;5034671;28;20044;-86
2022/01/19 05:52:25;;;;;;;6.05;3.35;;;-6.90;94.10;;;;;;5019218;28;20032;-88
2022/01/19 05:54:53;;;;;;;6.80;4.03;;;-6.90;94.10;;;;;;5020333;28;20076;-86
2022/01/19 05:57:19;;;;;;;5.18;3.03;;;-6.90;94.10;;;;;;5035527;28;20104;-87
2022/01/19 05:59:44;;;;;;;5.65;3.58;;;-6.90;94.10;;;;;;5039340;28;20534;-89
2022/01/19 06:02:11;;;;;;;7.13;3.55;;;-6.90;94.20;;;;;;5046370;28;20061;-88
2022/01/19 06:04:37;;;;;;;6.03;3.85;;;-6.90;94.20;;;;;;5052290;28;20037;-86
2022/01/19 06:07:03;;;;;;;5.90;3.95;;;-6.90;94.20;;;;;;5046836;28;20041;-86
2022/01/19 06:09:47;;;;;;;5.63;3.75;;;-6.90;94.20;;;;;;5041812;28;20529;-87
2022/01/19 06:12:14;;;;;;;9.43;4.10;;;-6.90;94.30;;;;;;5046549;28;20056;-87
2022/01/19 06:14:41;;;;;;;;;;;-6.90;94.30;;;;;;5031236;28;20032;-89
2022/01/19 06:17:09;;;;;;;6.80;3.58;;;-6.90;94.30;;;;;;5053470;28;19950;-88
2022/01/19 06:19:35;;;;;;;7.20;3.70;;;-6.90;94.30;;;;;;5044064;28;20079;-89
2022/01/19 06:22:03;;;;;;;8.52;4.75;;;-6.90;94.40;;;;;;5077449;28;20040;-80
2022/01/19 06:24:30;;;;;;;5.38;3.58;;;-6.90;94.50;;;;;;5046752;28;20048;-87
2022/01/19 06:26:57;;;;;;;5.40;3.25;;;-6.90;94.50;;;;;;5049540;28;20104;-86
2022/01/19 06:29:27;;;;;;;7.72;4.18;;;-6.90;94.60;;;;;;5055025;28;20037;-84
2022/01/19 06:31:53;;;;;;;8.70;4.60;;;-6.90;94.50;;;;;;5048001;28;20053;-85
2022/01/19 06:34:18;;;;;;;14.73;4.72;;;-6.80;94.60;;;;;;5041642;28;20033;-88
2022/01/19 06:36:47;;;;;;;12.13;5.35;;;-6.80;94.60;;;;;;5035249;28;20545;-87
2022/01/19 06:39:13;;;;;;;9.70;4.03;;;-6.70;94.70;;;;;;5035766;28;20033;-89
2022/01/19 06:41:39;;;;;;;5.45;3.83;;;-6.70;94.70;;;;;;5014948;28;20021;-89
2022/01/19 06:44:05;;;;;;;9.75;4.35;;;-6.60;94.70;;;;;;5018190;28;20025;-86
2022/01/19 06:46:31;;;;;;;5.15;3.58;;;-6.50;94.60;;;;;;5038494;28;20056;-89
2022/01/19 06:48:57;;;;;;;8.60;3.88;;;-6.40;94.50;;;;;;5040827;28;20030;-88
2022/01/19 06:51:23;;;;;;;11.57;3.20;;;-6.40;94.40;;;;;;5031803;28;20060;-90
2022/01/19 06:53:49;;;;;;;6.05;3.88;;;-6.30;94.50;;;;;;5029505;28;20117;-88
2022/01/19 06:56:16;;;;;;;9.35;4.35;;;-6.30;94.40;;;;;;5002299;28;20087;-89
2022/01/19 06:58:42;;;;;;;8.02;4.35;;;-6.30;94.40;;;;;;5019930;28;20022;-89
2022/01/19 07:01:07;;;;;;;7.85;4.63;;;-6.20;94.40;;;;;;5031706;28;20029;-84
2022/01/19 07:03:33;;;;;;;6.22;3.70;;;-6.20;94.30;;;;;;5015900;28;20160;-84
2022/01/19 07:06:01;;;;;;;11.48;4.47;;;-6.10;94.10;;;;;;5033133;28;20029;-85
2022/01/19 07:08:30;;;;;;;5.82;3.17;;;-6.10;94.00;;;;;;5036620;28;20037;-87
2022/01/19 07:10:55;;;;;;;5.85;3.53;;;-6.00;94.10;;;;;;5035196;28;20516;-89
2022/01/19 07:13:21;;;;;;;4.13;2.90;;;-6.00;94.10;;;;;;5032171;28;20028;-86
2022/01/19 07:15:48;;;;;;;5.00;2.88;;;-6.00;94.40;;;;;;5041210;28;20037;-88
2022/01/19 07:18:15;;;;;;;5.87;3.90;;;-5.90;94.30;;;;;;5056509;28;20488;-88
2022/01/19 07:20:41;;;;;;;5.00;2.90;;;-5.90;94.20;;;;;;5039324;28;20113;-87
2022/01/19 07:23:07;;;;;;;7.65;4.07;;;-5.90;94.50;;;;;;5055373;28;20103;-89
2022/01/19 07:25:33;;;;;;;7.53;4.22;;;-5.90;94.10;;;;;;5055097;28;20029;-87
2022/01/19 07:27:59;;;;;;;8.25;4.07;;;-5.90;93.90;;;;;;5066586;28;20024;-86
2022/01/19 07:30:26;;;;;;;10.50;5.10;;;-5.90;93.90;;;;;;5074415;28;20028;-86
2022/01/19 07:32:52;;;;;;;7.15;3.33;;;-5.80;93.90;;;;;;5075097;28;20473;-85
2022/01/19 07:35:19;;;;;;;8.57;4.17;;;-5.80;93.90;;;;;;5056983;28;20032;-84
2022/01/19 07:37:45;;;;;;;9.20;3.77;;;-5.70;93.80;;;;;;5058928;28;20029;-87
2022/01/19 07:40:11;;;;;;;5.40;3.00;;;-5.70;93.70;;;;;;5054251;28;20047;-86
2022/01/19 07:42:38;;;;;;;6.90;4.65;;;-5.80;93.50;;;;;;5056593;28;20477;-84
2022/01/19 07:45:06;;;;;;;4.05;2.50;;;-6.00;93.40;;;;;;5055154;28;20029;-83
2022/01/19 07:47:32;;;;;;;6.72;4.05;;;-6.00;93.40;;;;;;5046167;28;20037;-85
2022/01/19 07:49:57;;;;;;;7.00;4.30;;;-6.20;93.50;;;;;;5071781;28;20033;-84
2022/01/19 07:52:25;;;;;;;11.80;3.97;;;-6.20;93.50;;;;;;5057641;28;20075;-84
2022/01/19 07:54:51;;;;;;;13.30;3.78;;;-6.20;93.60;;;;;;5057436;28;20025;-83
2022/01/19 07:57:17;;;;;;;11.60;6.07;;;-6.20;93.70;;;;;;5039516;28;20036;-86
2022/01/19 07:59:43;;;;;;;6.78;3.85;;;-6.20;93.80;;;;;;5046644;28;20066;-85
2022/01/19 08:02:11;;;;;;;8.38;5.00;;;-6.20;94.00;;;;;;5052664;28;20048;-83
2022/01/19 08:04:37;;;;;;;7.18;3.92;;;-6.20;94.00;;;;;;5053704;28;20016;-85
2022/01/19 08:07:04;;;;;;;8.95;4.57;;;-6.20;93.90;;;;;;5055866;28;20079;-84
2022/01/19 08:09:31;;;;;;;7.72;5.65;;;-6.20;94.00;;;;;;5067213;28;20029;-84
2022/01/19 08:11:57;;;;;;;10.75;5.60;;;-6.20;94.00;;;;;;5076947;28;20047;-86
2022/01/19 08:14:24;;;;;;;10.25;4.97;;;-6.20;94.00;;;;;;5072226;28;20458;-85
2022/01/19 08:16:55;;;;;;;8.70;6.05;;;-6.10;94.10;;;;;;5060878;28;20024;-85
2022/01/19 08:19:21;;;;;;;10.55;6.60;;;-5.90;94.70;;;;;;5054987;28;20508;-85
2022/01/19 08:21:48;;;;;;;10.20;5.82;;;-5.60;95.10;;;;;;5050860;28;20537;-85
2022/01/19 08:24:14;;;;;;;8.73;4.97;;;-5.20;95.70;;;;;;5050149;28;20047;-85
2022/01/19 08:26:41;;;;;;;8.48;5.25;;;-4.60;96.00;;;;;;5050752;28;20025;-87
2022/01/19 08:29:09;;;;;;;10.45;5.43;;;-4.20;95.10;;;;;;5047737;28;20044;-84
2022/01/19 08:31:35;;;;;;;7.30;5.40;;;-3.70;94.30;;;;;;5053248;28;20033;-83
2022/01/19 08:34:01;;;;;;;7.57;5.20;;;-3.30;94.20;;;;;;5053301;28;20371;-83
2022/01/19 08:36:27;;;;;;;7.63;4.32;;;-2.80;93.60;;;;;;5052167;28;20035;-83
2022/01/19 08:38:54;;;;;;;11.30;5.40;;;-2.40;92.70;;;;;;5054586;28;20436;-90
2022/01/19 08:41:20;;;;;;;11.82;6.05;;;-2.10;92.00;;;;;;5055621;28;20041;-86
2022/01/19 08:43:46;;;;;;;8.32;5.95;;;-1.70;91.60;;;;;;5054449;28;20037;-91
2022/01/19 08:46:12;;;;;;;10.55;4.30;;;-1.50;90.60;;;;;;5056711;28;20448;-89
2022/01/19 08:48:38;;;;;;;6.38;4.57;;;-1.20;90.20;;;;;;5053569;28;20096;-86
2022/01/19 08:51:05;;;;;;;10.52;5.00;;;-1.00;88.20;;;;;;5054010;28;20048;-89
2022/01/19 08:53:32;;;;;;;9.07;5.93;;;-1.10;86.20;;;;;;5056661;28;20025;-88
2022/01/19 08:55:58;;;;;;;7.97;6.18;;;-1.20;84.90;;;;;;5054123;28;20025;-85
2022/01/19 08:58:25;;;;;;;12.00;6.30;;;-1.40;82.20;;;;;;5054486;28;20025;-85
2022/01/19 09:00:51;;;;;;;12.68;7.22;;;-1.50;82.20;;;;;;5037899;28;20051;-86
2022/01/19 09:03:18;;;;;;;9.57;6.53;;;-1.50;83.70;;;;;;5041341;28;20017;-85
2022/01/19 09:05:45;;;;;;;13.15;6.68;;;-1.40;83.60;;;;;;5061593;28;20025;-85
2022/01/19 09:08:11;;;;;;;9.52;6.78;;;-1.50;81.40;;;;;;5063024;28;20025;-87
2022/01/19 09:10:40;;;;;;;12.05;7.00;;;-1.40;81.80;;;;;;5055651;28;20389;-87
2022/01/19 09:13:06;;;;;;;11.68;7.45;;;-1.40;81.80;;;;;;5054579;28;20428;-87
2022/01/19 09:15:32;;;;;;;10.20;6.82;;;-1.30;82.30;;;;;;5058070;28;20374;-82
2022/01/19 09:17:58;;;;;;;12.20;6.55;;;-1.10;82.20;;;;;;5057144;28;20028;-83
2022/01/19 09:20:23;;;;;;;12.15;7.75;;;-0.80;82.30;;;;;;5055327;28;20049;-85
2022/01/19 09:22:49;;;;;;;11.48;7.63;;;-0.60;81.70;;;;;;5056232;28;20071;-83
2022/01/19 09:25:15;;;;;;;8.32;6.72;;;-0.30;80.70;;;;;;5054957;28;20052;-89
2022/01/19 09:27:41;;;;;;;14.57;6.70;;;-0.10;80.30;;;;;;5058861;28;20389;-86
2022/01/19 09:30:14;;;;;;;9.80;6.20;;;0.20;83.00;;;;;;5059716;28;20033;-87
2022/01/19 09:32:54;;;;;;;10.63;5.97;;;0.40;80.90;;;;;;5060709;28;20063;-88
2022/01/19 09:35:24;;;;;;;9.98;6.22;;;0.50;82.10;;;;;;5040534;28;20033;-86
2022/01/19 09:37:50;;;;;;;15.60;6.40;;;0.50;81.30;;;;;;5056883;28;20059;-86
2022/01/19 09:40:16;;;;;;;13.75;7.05;;;0.40;81.10;;;;;;5058333;28;20025;-90
2022/01/19 09:42:45;;;;;;;10.20;6.30;;;0.30;83.00;;;;;;5066709;28;20021;-89
2022/01/19 09:45:12;;;;;;;9.07;6.13;;;0.20;84.40;;;;;;5069181;28;20032;-87
2022/01/19 09:47:39;;;;;;;11.27;6.65;;;0.20;86.10;;;;;;5058482;28;20032;-88
2022/01/19 09:50:06;;;;;;;12.85;6.93;;;0.10;86.40;;;;;;5057570;28;20102;-89
2022/01/19 09:52:32;;;;;;;10.33;6.20;;;0.10;84.80;;;;;;5039998;28;20021;-90
2022/01/19 09:54:58;;;;;;;10.60;6.97;;;0.00;84.50;;;;;;5059623;28;20061;-90
2022/01/19 09:57:23;;;;;;;9.98;6.18;;;-0.10;84.00;;;;;;5071722;28;20021;-87
2022/01/19 09:59:49;;;;;;;14.88;6.43;;;-0.20;83.50;;;;;;5076226;28;20087;-86
2022/01/19 10:02:16;;;;;;;11.15;6.10;;;-0.20;83.60;;;;;;5063677;28;20024;-88
2022/01/19 10:04:46;;;;;;;9.15;4.85;;;-0.30;82.80;;;;;;5059290;28;20031;-88
2022/01/19 10:07:12;;;;;;;9.32;5.93;;;-0.30;83.70;;;;;;5065293;28;20025;-89
2022/01/19 10:10:05;;;;;;;11.80;6.55;;;-0.40;84.40;;;;;;5052329;28;20025;-95
2022/01/19 10:18:21;;;;;;;8.35;5.35;;;-0.50;83.80;;;;;;5044821;28;20052;-90
2022/01/19 10:21:03;;;;;;;12.27;7.68;;;-0.60;83.80;;;;;;5033934;28;20050;-89
2022/01/19 10:23:48;;;;;;;12.70;5.47;;;-0.60;83.60;;;;;;4993514;28;20042;-90
2022/01/19 10:26:38;;;;;;;11.88;5.40;;;-0.60;84.20;;;;;;4983374;28;20050;-89
2022/01/19 10:29:33;;;;;;;9.90;5.35;;;-0.50;85.40;;;;;;4944438;28;20066;-91
2022/01/19 10:32:04;;;;;;;8.30;5.13;;;-0.50;85.50;;;;;;4990510;28;20089;-92
2022/01/19 10:34:37;;;;;;;9.52;5.25;;;-0.40;83.30;;;;;;4970412;28;20074;-89
2022/01/19 10:37:05;;;;;;;9.50;6.00;;;-0.40;84.00;;;;;;4962422;28;20034;-86
2022/01/19 10:39:46;;;;;;;8.13;5.25;;;-0.50;82.90;;;;;;4980237;28;20062;-89
2022/01/19 10:42:16;;;;;;;12.75;6.47;;;-0.50;81.50;;;;;;4962351;28;20039;-86
2022/01/19 10:44:44;;;;;;;8.73;5.25;;;-0.70;82.50;;;;;;4962320;28;20650;-89
2022/01/19 10:47:11;;;;;;;23.55;12.15;;;-0.90;82.30;;;;;;4981324;28;20050;-86
2022/01/19 10:49:56;;;;;;;10.32;5.57;;;-1.00;82.00;;;;;;4988959;28;20031;-86
2022/01/19 10:52:53;;;;;;;7.78;4.82;;;-1.10;82.30;;;;;;4991257;28;20078;-91
2022/01/19 10:55:32;;;;;;;9.27;4.90;;;-1.20;82.90;;;;;;4943408;29;20090;-92
2022/01/19 10:58:00;;;;;;;8.57;4.97;;;-1.30;83.40;;;;;;4952294;29;20019;-90
2022/01/19 11:00:42;;;;;;;7.68;4.75;;;-1.50;84.20;;;;;;4927874;29;20043;-93
2022/01/19 11:03:15;;;;;;;8.82;4.93;;;-1.50;84.60;;;;;;4924448;29;20043;-92
2022/01/19 11:05:51;;;;;;;12.07;6.32;;;-1.50;84.50;;;;;;4940377;29;20087;-93
2022/01/19 11:08:21;;;;;;;9.90;4.78;;;-1.60;84.20;;;;;;4938329;29;20063;-85
2022/01/19 11:10:49;;;;;;;12.02;5.65;;;-1.60;84.90;;;;;;4940249;29;20238;-88
2022/01/19 11:13:56;;;;;;;8.95;4.63;;;-1.70;85.10;;;;;;4939633;29;20080;-88
2022/01/19 11:16:12;;;;;;;8.88;4.95;;;-1.80;85.70;;;;;;4949798;29;20051;-92
2022/01/19 11:18:39;;;;;;;12.80;6.50;;;-1.90;86.50;;;;;;4935649;29;20401;-86
2022/01/19 11:21:09;;;;;;;14.80;6.22;;;-2.00;86.60;;;;;;4931579;29;20040;-86
2022/01/19 11:24:22;;;;;;;12.05;6.15;;;-2.10;86.10;;;;;;4927884;29;20048;-87
2022/01/19 11:26:49;;;;;;;10.05;5.43;;;-2.10;86.20;;;;;;4904131;29;20130;-88
2022/01/19 11:29:18;;;;;;;8.25;4.88;;;-2.20;86.70;;;;;;4955054;28;20064;-88
2022/01/19 11:31:44;;;;;;;11.57;5.40;;;-2.30;86.90;;;;;;4975514;28;20061;-92
2022/01/19 11:34:16;;;;;;;10.80;6.50;;;-2.40;87.90;;;;;;4967441;28;20031;-93
2022/01/19 11:36:43;;;;;;;11.77;6.03;;;-2.40;88.20;;;;;;5003908;28;20034;-86
2022/01/19 11:39:19;;;;;;;11.90;7.32;;;-2.40;88.70;;;;;;5003720;28;20109;-89
2022/01/19 11:42:04;;;;;;;9.85;6.38;;;-2.50;88.40;;;;;;4945789;29;20039;-89
2022/01/19 11:44:33;;;;;;;7.68;4.78;;;-2.50;88.20;;;;;;4930366;29;20063;-89
2022/01/19 11:47:21;;;;;;;13.10;5.50;;;-2.50;88.60;;;;;;4954890;28;20043;-88
2022/01/19 11:49:59;;;;;;;11.73;5.88;;;-2.50;88.60;;;;;;4946721;29;20082;-89
2022/01/19 11:53:10;;;;;;;12.57;5.07;;;-2.50;88.60;;;;;;4972553;28;20547;-89
2022/01/19 11:56:06;;;;;;;7.30;4.60;;;-2.50;89.80;;;;;;4939765;29;20095;-92
2022/01/19 11:58:34;;;;;;;10.48;6.53;;;-2.50;89.40;;;;;;4934297;29;20080;-90
2022/01/19 12:01:27;;;;;;;11.63;5.57;;;-2.60;89.60;;;;;;5023550;22;20066;-89
2022/01/19 12:04:14;;;;;;;7.78;4.63;;;-2.60;89.10;;;;;;5035704;28;20044;-90
2022/01/19 12:06:42;;;;;;;8.50;4.75;;;-2.70;90.10;;;;;;5086221;28;20037;-88
2022/01/19 12:09:11;;;;;;;10.07;5.60;;;-2.80;90.30;;;;;;5075019;28;20052;-89
2022/01/19 12:11:47;;;;;;;7.85;6.25;;;-2.90;90.40;;;;;;5080022;28;20210;-93
2022/01/19 12:14:28;;;;;;;10.35;5.53;;;-3.00;90.40;;;;;;5086917;28;20024;-92
2022/01/19 12:17:25;;;;;;;8.35;4.60;;;-3.00;90.50;;;;;;5071989;28;20021;-94
2022/01/19 12:19:53;;;;;;;11.52;5.03;;;-3.00;90.30;;;;;;5083338;28;20031;-88
2022/01/19 12:22:24;;;;;;;6.97;4.97;;;-3.00;90.70;;;;;;5071973;28;20044;-86
2022/01/19 12:25:02;;;;;;;8.57;4.35;;;-3.10;90.70;;;;;;5063431;28;20041;-86
2022/01/19 12:27:34;;;;;;;11.75;4.85;;;-3.10;90.60;;;;;;5067359;28;20017;-89
2022/01/19 12:30:15;;;;;;;8.98;5.40;;;-3.00;90.40;;;;;;5045161;28;20017;-91
2022/01/19 12:32:46;;;;;;;10.48;5.88;;;-3.00;90.30;;;;;;5039695;28;20045;-88
2022/01/19 12:35:16;;;;;;;9.05;5.60;;;-3.00;90.70;;;;;;5069994;28;20005;-87
2022/01/19 12:37:55;;;;;;;9.57;5.20;;;-3.00;90.80;;;;;;5077074;28;20036;-84
2022/01/19 12:40:43;;;;;;;7.53;4.47;;;-3.00;90.60;;;;;;5076893;28;20005;-88
2022/01/19 12:43:32;;;;;;;7.55;4.22;;;-3.10;90.80;;;;;;5053920;28;20041;-89
2022/01/19 12:45:58;;;;;;;9.80;4.47;;;-3.10;90.70;;;;;;5061443;28;20029;-89
2022/01/19 12:48:48;;;;;;;7.00;3.83;;;-3.20;90.70;;;;;;5059131;28;20102;-86
2022/01/19 12:51:41;;;;;;;10.23;4.63;;;-3.20;90.90;;;;;;5052301;28;20033;-91
2022/01/19 12:54:36;;;;;;;13.52;3.50;;;-3.30;90.90;;;;;;5076103;28;20020;-94
2022/01/19 12:57:23;;;;;;;7.05;4.28;;;-3.30;90.90;;;;;;5064592;28;20013;-94
2022/01/19 12:59:51;;;;;;;8.38;3.28;;;-3.30;91.00;;;;;;5089567;28;20056;-82
2022/01/19 13:02:17;;;;;;;;;;;-3.20;90.80;;;;;;5085825;28;20032;-89
2022/01/19 13:04:47;;;;;;;;;;;-3.20;90.60;;;;;;5054326;28;19915;-89
2022/01/19 13:07:19;;;;;;;8.05;3.72;;;-3.30;91.00;;;;;;5077181;28;19908;-93
2022/01/19 13:10:21;;;;;;;6.15;2.92;;;-3.40;91.50;;;;;;5061191;28;20029;-91
2022/01/19 13:13:06;;;;;;;8.98;4.68;;;-3.50;91.80;;;;;;5062802;28;20025;-92
2022/01/19 13:16:21;;;;;;;10.15;4.93;;;-3.50;91.70;;;;;;5085536;28;20020;-94
2022/01/19 13:18:47;;;;;;;8.32;4.15;;;-3.50;91.60;;;;;;5020198;28;20033;-91
2022/01/19 13:21:19;;;;;;;5.38;3.72;;;-3.40;91.80;;;;;;5060262;28;20481;-89
2022/01/19 13:24:00;;;;;;;7.35;4.55;;;-3.40;92.00;;;;;;5064477;28;20052;-90
2022/01/19 13:27:07;;;;;;;13.07;5.38;;;-3.40;91.90;;;;;;5079926;28;20111;-88
2022/01/19 13:29:54;;;;;;;9.10;4.80;;;-3.40;91.90;;;;;;5097192;28;20021;-94
2022/01/19 13:32:22;;;;;;;8.80;3.97;;;-3.40;91.90;;;;;;5068175;28;20435;-89
2022/01/19 13:35:02;;;;;;;5.57;3.80;;;-3.30;92.00;;;;;;5067582;28;20047;-92
2022/01/19 13:37:42;;;;;;;6.53;3.40;;;-3.30;91.90;;;;;;5092767;28;20012;-91
2022/01/19 13:40:33;;;;;;;9.60;4.00;;;-3.40;91.60;;;;;;5093579;28;20033;-87
2022/01/19 13:43:03;;;;;;;6.50;2.85;;;-3.40;91.80;;;;;;5063685;28;20024;-85
2022/01/19 13:45:38;;;;;;;8.10;4.85;;;-3.40;91.80;;;;;;5071502;28;20482;-86
2022/01/19 13:48:37;;;;;;;11.13;4.85;;;-3.50;91.70;;;;;;5064997;28;20016;-89
2022/01/19 13:51:10;;;;;;;7.90;3.65;;;-3.50;91.60;;;;;;5063372;28;20072;-89
2022/01/19 13:54:18;;;;;;;6.88;3.80;;;-3.60;92.00;;;;;;5039733;28;20034;-93
2022/01/19 13:57:04;;;;;;;9.27;4.43;;;-3.60;92.10;;;;;;5049159;28;20024;-92
2022/01/19 14:14:06;;;;;;;8.18;4.75;;;-3.70;92.50;;;;;;5090073;27;1421614;-89
2022/01/19 14:16:47;;;;;;;14.88;7.70;;;-3.90;93.20;;;;;;5130777;28;20099;-94
2022/01/19 14:19:43;;;;;;;9.38;4.85;;;-3.90;93.60;;;;;;5146126;28;20051;-91
2022/01/19 14:22:53;;;;;;;11.70;5.25;;;-3.90;93.40;;;;;;5133976;28;20066;-93
2022/01/19 14:25:38;;;;;;;9.27;3.95;;;-3.90;93.60;;;;;;5151706;28;20041;-90
2022/01/19 14:28:33;;;;;;;8.15;4.50;;;-3.80;93.80;;;;;;5133834;28;20070;-94
2022/01/19 14:31:06;;;;;;;11.20;4.95;;;-3.80;93.90;;;;;;5130056;28;20034;-93
2022/01/19 14:34:24;;;;;;;7.95;4.20;;;-3.80;94.00;;;;;;5145782;28;20036;-94
2022/01/19 14:37:18;;;;;;;12.45;4.93;;;-3.80;94.10;;;;;;5149448;28;20031;-94
2022/01/19 14:40:10;;;;;;;11.05;5.93;;;-3.80;94.10;;;;;;5141010;28;20024;-92
2022/01/19 14:42:38;;;;;;;10.13;5.38;;;-3.80;94.10;;;;;;5106682;28;20057;-84
2022/01/19 14:45:27;;;;;;;9.93;4.93;;;-3.80;94.20;;;;;;5151537;28;20011;-85
2022/01/19 14:47:55;;;;;;;8.48;4.63;;;-3.70;94.50;;;;;;5121273;28;20019;-88